Česky Dansk Deutsch English Español Suomi Français Magyar Italiano Nederlands norsk Polski Português svenska Türkçe

 

Het Weer

Hwange National Park (Zimbabwe)

15:00, 11 augustus 2016 (GMT)

NWNNE
WE
SWSSE
Home            
Hwange National Park Binga Victoria Falls Livingstone Choma Gokwe Kasane Bulawayo Airport Sua-Pan Francistown Kariba Gweru Sesheke Katima Mulilo Karoi Letlhakane Selebi Phikwe Lusaka Internationalairport Maun Masvingo Harare Kutsaga Senanga Kaoma

Om een weerknop op uw website of weblog te plaatsen, copieer onderstaande code en plak die in uw pagina. In het eerste vakje staat HTML-code, in het tweede vakje UBB-code.


Add to Google

Details

Wind speed:1 bf, 3 kn, 1.5 m/s, 3.5 miles/h, 5.6 km/h
Wind direction:E, 090°
Visibility:Greater than 10000 m, 10 km, 32800 ft, 6.2 miles
Clouds:CAVOC
Temperature:26°C, 79°F
Gefühlte Temperatur:26°C, 78°F
Dew-point:3°C, 37°F
Atmospheric pressure:1022 hPa, 766.6 mmHg, 30.18 inHg, 1.009 atm
Relative humidity:22.5 %
METAR:FVWN 111500Z 09003KT CAVOK 26/03 Q1022

Snelkoppelingen

Actuele weersinformatie van de hele wereld. Voeg locaties toe met het plus (+) symbool. Deze snelkoppelingen kunnen worden toegevoegd aan Google.

Lid van de Technetium groep

website free tracking
StatCounter NetStat W3C Validator

21-10-2020 11:57:23
astro.technetium.be money.technetium.be phote.technetium.be tafeltennistafel.technetium.be www.ligfiets.net